Time;durP1;ratioP1;P1;durP2;ratioP2;P2;SDS_P1;SDS_P2;PMS_P1;PMS_P2;Temp;Humidity;BMP_temperature;BMP_pressure;BME280_temperature;BME280_humidity;BME280_pressure;Samples;Min_cycle;Max_cycle;Signal;HPM_P1;HPM_P2
2020/10/22 00:01:43;;;;;;;3.3;1.8;;;;;;;11.09;72.25195;938.4625;;;;
2020/10/22 00:04:08;;;;;;;3.5;2.1;;;;;;;11.1;72.06934;938.4426;;;;
2020/10/22 00:06:34;;;;;;;2.5;1.3;;;;;;;11.01;70.07715;938.4551;;;;
2020/10/22 00:09:06;;;;;;;0.9;0.8;;;;;;;11.06;69.56152;938.4344;;;;
2020/10/22 00:11:33;;;;;;;8.1;1.6;;;;;;;11.18;70.59668;938.4871;;;;
2020/10/22 00:13:58;;;;;;;5.2;2.3;;;;;;;11.25;70.89453;938.5109;;;;
2020/10/22 00:16:24;;;;;;;2.3;1.7;;;;;;;11.25;71.06738;938.5613;;;;
2020/10/22 00:18:49;;;;;;;3.5;1.3;;;;;;;11.22;71.33594;938.5562;;;;
2020/10/22 00:21:17;;;;;;;2.2;1.3;;;;;;;10.85;72.80566;938.5845;;;;
2020/10/22 00:23:41;;;;;;;3.9;1.1;;;;;;;10.81;71.1543;938.6312;;;;
2020/10/22 00:26:09;;;;;;;2.5;1.2;;;;;;;10.97;71.21387;938.5664;;;;
2020/10/22 00:28:34;;;;;;;3.5;1.2;;;;;;;11;71.53809;938.6733;;;;
2020/10/22 00:30:59;;;;;;;4.2;1;;;;;;;10.95;71.83984;938.7949;;;;
2020/10/22 00:33:25;;;;;;;6.6;1.4;;;;;;;10.85;71.62695;938.8115;;;;
2020/10/22 00:35:52;;;;;;;2;1.1;;;;;;;10.8;71.90527;938.8275;;;;
2020/10/22 00:38:17;;;;;;;2.8;1.1;;;;;;;10.89;71.45215;938.843;;;;
2020/10/22 00:40:42;;;;;;;1.8;1.2;;;;;;;10.91;70.74609;938.8869;;;;
2020/10/22 00:43:08;;;;;;;3.7;1.6;;;;;;;10.95;70.25098;938.8427;;;;
2020/10/22 00:45:33;;;;;;;2.8;0.9;;;;;;;10.92;70.28125;938.9014;;;;
2020/10/22 00:48:04;;;;;;;2.8;1.2;;;;;;;10.87;71.20898;938.8588;;;;
2020/10/22 00:50:29;;;;;;;1.4;1;;;;;;;10.91;71.22754;938.8631;;;;
2020/10/22 00:52:57;;;;;;;4.1;1.5;;;;;;;10.72;71.88184;938.8953;;;;
2020/10/22 00:55:23;;;;;;;1.9;0.8;;;;;;;10.54;72.72949;938.8947;;;;
2020/10/22 00:57:54;;;;;;;12.8;1.5;;;;;;;10.65;72.47559;938.9089;;;;
2020/10/22 01:00:23;;;;;;;8.2;1.6;;;;;;;10.61;72.35352;938.9539;;;;
2020/10/22 01:02:48;;;;;;;1.8;1.2;;;;;;;10.48;73.1084;938.9252;;;;
2020/10/22 01:05:17;;;;;;;1.8;1.1;;;;;;;10.54;72.72949;938.9664;;;;
2020/10/22 01:07:42;;;;;;;1.7;1.1;;;;;;;10.66;70.59277;938.9886;;;;
2020/10/22 01:10:17;;;;;;;1.5;1;;;;;;;10.7;71.51367;938.9683;;;;
2020/10/22 01:12:43;;;;;;;2.1;1.1;;;;;;;10.7;71.75195;939.0552;;;;
2020/10/22 01:15:09;;;;;;;2.3;1.1;;;;;;;10.61;72;938.995;;;;
2020/10/22 01:17:37;;;;;;;1.5;1;;;;;;;10.4;72.92383;939.0115;;;;
2020/10/22 01:20:05;;;;;;;1.8;1.1;;;;;;;10.24;73.74121;939.0304;;;;
2020/10/22 01:22:30;;;;;;;5.4;1.4;;;;;;;10.14;74.24902;939.1145;;;;
2020/10/22 01:24:55;;;;;;;1.6;1.1;;;;;;;10.1;74.53906;939.1164;;;;
2020/10/22 01:27:22;;;;;;;7;1.9;;;;;;;9.72;76.47949;939.0123;;;;
2020/10/22 01:29:47;;;;;;;2.4;1.4;;;;;;;9.72;76.55859;939.0952;;;;
2020/10/22 01:32:16;;;;;;;2;1.3;;;;;;;9.66;76.80957;939.1141;;;;
2020/10/22 01:34:41;;;;;;;4.5;1.4;;;;;;;9.69;76.4502;939.1415;;;;
2020/10/22 01:37:08;;;;;;;1.7;1.2;;;;;;;9.65;76.53516;939.0989;;;;
2020/10/22 01:39:33;;;;;;;1.8;1.1;;;;;;;9.51;77.02344;939.1259;;;;
2020/10/22 01:42:00;;;;;;;3.1;1.6;;;;;;;9.36;77.64453;939.0893;;;;
2020/10/22 01:44:26;;;;;;;2.1;1.2;;;;;;;9.48;77.24609;939.0667;;;;
2020/10/22 01:46:53;;;;;;;3.8;1.3;;;;;;;9.59;76.76465;939.0842;;;;
2020/10/22 01:49:18;;;;;;;1.7;1.2;;;;;;;9.7;76.23535;939.1495;;;;
2020/10/22 01:51:48;;;;;;;1.6;1.2;;;;;;;9.68;76.50586;939.1978;;;;
2020/10/22 01:54:13;;;;;;;3.6;1.5;;;;;;;9.74;76.2207;939.267;;;;
2020/10/22 01:56:40;;;;;;;2.4;1.4;;;;;;;9.73;76.02539;939.2876;;;;
2020/10/22 01:59:12;;;;;;;3.9;1.4;;;;;;;9.58;76.43066;939.3162;;;;
2020/10/22 02:01:43;;;;;;;1.7;1;;;;;;;9.58;76.36426;939.2947;;;;
2020/10/22 02:04:12;;;;;;;1.3;0.9;;;;;;;9.47;76.70801;939.2573;;;;
2020/10/22 02:06:39;;;;;;;2.5;1.4;;;;;;;9.41;76.87988;939.2438;;;;
2020/10/22 02:09:08;;;;;;;4.3;1.5;;;;;;;9.26;77.41113;939.2601;;;;
2020/10/22 02:11:35;;;;;;;4.4;1.8;;;;;;;9.09;78.29004;939.3064;;;;
2020/10/22 02:14:01;;;;;;;3.2;1.6;;;;;;;9.06;78.31836;939.2097;;;;
2020/10/22 02:16:28;;;;;;;2;1.3;;;;;;;9.06;78.34277;939.1749;;;;
2020/10/22 02:18:52;;;;;;;2.3;1.3;;;;;;;9;78.50195;939.1846;;;;
2020/10/22 02:21:22;;;;;;;3.2;1.5;;;;;;;8.88;78.90137;939.1152;;;;
2020/10/22 02:23:50;;;;;;;3.4;1.4;;;;;;;8.92;78.9209;939.1858;;;;
2020/10/22 02:26:18;;;;;;;2.6;1.3;;;;;;;9.01;78.45801;939.2455;;;;
2020/10/22 02:28:48;;;;;;;2.5;1.1;;;;;;;9.07;78.09375;939.2862;;;;
2020/10/22 02:31:18;;;;;;;2.6;1.4;;;;;;;9.12;77.83984;939.3601;;;;
2020/10/22 02:33:45;;;;;;;2.9;1.3;;;;;;;9.03;78.14355;939.3419;;;;
2020/10/22 02:36:13;;;;;;;3.2;1.7;;;;;;;8.95;78.51465;939.3029;;;;
2020/10/22 02:38:43;;;;;;;2.3;1.3;;;;;;;8.92;78.52051;939.1873;;;;
2020/10/22 02:41:12;;;;;;;2.9;1.5;;;;;;;8.88;78.71875;939.2111;;;;
2020/10/22 02:43:37;;;;;;;2.3;1.6;;;;;;;8.89;78.60645;939.1772;;;;
2020/10/22 02:46:06;;;;;;;4.5;2;;;;;;;8.72;79.15723;939.2383;;;;
2020/10/22 02:48:34;;;;;;;4.8;2.2;;;;;;;8.75;79.0127;939.1992;;;;
2020/10/22 02:50:59;;;;;;;6.5;2.2;;;;;;;8.73;78.84961;939.1464;;;;
2020/10/22 02:53:24;;;;;;;4.9;1.5;;;;;;;8.82;78.45898;939.2825;;;;
2020/10/22 02:55:49;;;;;;;2.6;1.5;;;;;;;8.74;78.25098;939.295;;;;
2020/10/22 02:58:17;;;;;;;4.2;1.3;;;;;;;8.65;78.8125;939.3275;;;;
2020/10/22 03:00:51;;;;;;;5.7;1.8;;;;;;;8.68;78.60352;939.4194;;;;
2020/10/22 03:03:16;;;;;;;3.4;2.1;;;;;;;8.62;78.97754;939.4724;;;;
2020/10/22 03:05:47;;;;;;;6.2;2;;;;;;;8.64;78.96973;939.4615;;;;
2020/10/22 03:08:12;;;;;;;1.7;1.3;;;;;;;8.71;78.8584;939.4858;;;;
2020/10/22 03:10:39;;;;;;;3.9;1.9;;;;;;;8.82;78.23145;939.508;;;;
2020/10/22 03:13:08;;;;;;;3.1;1.6;;;;;;;8.88;77.97949;939.5424;;;;
2020/10/22 03:15:38;;;;;;;3;1.3;;;;;;;8.76;78.57227;939.5439;;;;
2020/10/22 03:18:04;;;;;;;2.8;1.9;;;;;;;8.7;78.69727;939.4824;;;;
2020/10/22 03:20:29;;;;;;;3.6;2.1;;;;;;;8.67;78.79492;939.5034;;;;
2020/10/22 03:22:57;;;;;;;2.3;1.4;;;;;;;8.61;79.2373;939.5539;;;;
2020/10/22 03:25:24;;;;;;;5.4;1.2;;;;;;;8.49;79.74902;939.4504;;;;
2020/10/22 03:27:52;;;;;;;3.8;1.7;;;;;;;8.49;79.89648;939.425;;;;
2020/10/22 03:30:27;;;;;;;3.3;1.7;;;;;;;8.66;79.12305;939.3747;;;;
2020/10/22 03:32:54;;;;;;;5.1;1.6;;;;;;;8.69;78.80957;939.298;;;;
2020/10/22 03:35:20;;;;;;;4.6;1.3;;;;;;;8.61;78.88574;939.3158;;;;
2020/10/22 03:37:48;;;;;;;3.3;1.5;;;;;;;8.47;79.13184;939.3644;;;;
2020/10/22 03:40:16;;;;;;;1.7;1.3;;;;;;;8.58;79.04883;939.2958;;;;
2020/10/22 03:42:44;;;;;;;6.1;1.9;;;;;;;8.67;78.2832;939.3373;;;;
2020/10/22 03:45:09;;;;;;;3.8;1.7;;;;;;;8.43;79.38672;939.3787;;;;
2020/10/22 03:47:37;;;;;;;3.8;1.8;;;;;;;8.23;80.51953;939.4274;;;;
2020/10/22 03:50:02;;;;;;;6.6;2.1;;;;;;;8.21;80.51563;939.4992;;;;
2020/10/22 03:52:28;;;;;;;3.5;1.4;;;;;;;8.09;80.93652;939.4624;;;;
2020/10/22 03:54:58;;;;;;;12.6;1.9;;;;;;;8.19;80.4668;939.4542;;;;
2020/10/22 03:57:23;;;;;;;5.6;1.7;;;;;;;8.27;80.26465;939.4559;;;;
2020/10/22 03:59:50;;;;;;;6.4;2;;;;;;;8.29;80.32715;939.3745;;;;
2020/10/22 04:02:36;;;;;;;3.8;2.1;;;;;;;8.39;79.77734;939.3872;;;;
2020/10/22 04:05:01;;;;;;;2.7;1.6;;;;;;;8.48;79.20313;939.3702;;;;
2020/10/22 04:07:27;;;;;;;4.6;2.3;;;;;;;8.51;79.00391;939.3746;;;;
2020/10/22 04:09:56;;;;;;;3.2;1.9;;;;;;;8.53;78.79297;939.3187;;;;
2020/10/22 04:12:21;;;;;;;5.5;2.1;;;;;;;8.52;78.67578;939.4162;;;;
2020/10/22 04:14:51;;;;;;;8.6;2.4;;;;;;;8.46;78.38184;939.4214;;;;
2020/10/22 04:17:15;;;;;;;6.5;2.3;;;;;;;8.43;78.38672;939.4081;;;;
2020/10/22 04:19:45;;;;;;;4.4;2;;;;;;;8.27;79.40137;939.4774;;;;
2020/10/22 04:22:13;;;;;;;4.2;2.3;;;;;;;8.24;79.4873;939.5022;;;;
2020/10/22 04:24:38;;;;;;;4.8;2.1;;;;;;;8.11;80.27051;939.5477;;;;
2020/10/22 04:27:07;;;;;;;5.2;2;;;;;;;8.15;80.27734;939.4389;;;;
2020/10/22 04:29:33;;;;;;;5;2.3;;;;;;;8.18;80.13672;939.4498;;;;
2020/10/22 04:31:59;;;;;;;3.3;2;;;;;;;8.21;80.12793;939.5219;;;;
2020/10/22 04:34:29;;;;;;;6.1;2;;;;;;;8.13;80.43262;939.5615;;;;
2020/10/22 04:36:54;;;;;;;8.8;2.3;;;;;;;8.1;80.62988;939.5363;;;;
2020/10/22 04:39:19;;;;;;;4.1;1.9;;;;;;;7.89;81.64648;939.4967;;;;
2020/10/22 04:41:44;;;;;;;2.2;1.6;;;;;;;7.93;81.54199;939.538;;;;
2020/10/22 04:44:09;;;;;;;2.5;1.5;;;;;;;7.93;81.57617;939.4524;;;;
2020/10/22 04:46:41;;;;;;;3.1;1.7;;;;;;;7.97;81.49219;939.546;;;;
2020/10/22 04:49:08;;;;;;;8.5;2.1;;;;;;;7.95;81.28418;939.4861;;;;
2020/10/22 04:51:38;;;;;;;3.3;1.6;;;;;;;7.83;81.8291;939.4272;;;;
2020/10/22 04:54:04;;;;;;;7;2;;;;;;;7.85;81.78711;939.3738;;;;
2020/10/22 04:56:30;;;;;;;4;2;;;;;;;7.85;81.54883;939.3563;;;;
2020/10/22 04:59:02;;;;;;;5.9;1.5;;;;;;;7.86;81.82324;939.1853;;;;
2020/10/22 05:01:28;;;;;;;6.8;1.8;;;;;;;7.95;81.20508;939.2103;;;;
2020/10/22 05:03:57;;;;;;;4.1;1.5;;;;;;;7.99;80.26953;939.2111;;;;
2020/10/22 05:06:23;;;;;;;5.1;1.7;;;;;;;7.95;80.17188;939.1609;;;;
2020/10/22 05:08:48;;;;;;;2.4;1.4;;;;;;;8.06;79.93066;939.0414;;;;
2020/10/22 05:11:13;;;;;;;3.2;1.2;;;;;;;8.15;78.82422;939.0566;;;;
2020/10/22 05:13:39;;;;;;;3.7;1.2;;;;;;;8.29;78.33887;939.0034;;;;
2020/10/22 05:16:04;;;;;;;2.2;1.2;;;;;;;8.41;77.26953;939.032;;;;
2020/10/22 05:18:29;;;;;;;2.2;1.3;;;;;;;8.55;76.66895;938.9714;;;;
2020/10/22 05:20:55;;;;;;;2.6;1.6;;;;;;;8.68;76.06738;938.9836;;;;
2020/10/22 05:23:23;;;;;;;3.4;1.8;;;;;;;8.66;75.64355;938.9944;;;;
2020/10/22 05:25:52;;;;;;;1.9;1.3;;;;;;;8.71;75.50391;939.0008;;;;
2020/10/22 05:28:22;;;;;;;2;1.5;;;;;;;8.77;75.69727;939.0002;;;;
2020/10/22 05:30:54;;;;;;;2.4;1.9;;;;;;;8.72;76.21094;939.0795;;;;
2020/10/22 05:33:27;;;;;;;8.4;2.5;;;;;;;8.55;77.43066;939.1373;;;;
2020/10/22 05:36:00;;;;;;;4.2;2.1;;;;;;;8.14;79.37891;939.0708;;;;
2020/10/22 05:38:41;;;;;;;7.9;2.7;;;;;;;8.02;80.16113;939.1666;;;;
2020/10/22 05:41:18;;;;;;;3.5;1.9;;;;;;;8.04;80.12988;939.2266;;;;
2020/10/22 05:44:08;;;;;;;4.1;1.8;;;;;;;8.14;79.85547;939.1755;;;;
2020/10/22 05:46:34;;;;;;;3.9;1.9;;;;;;;8.15;78.92578;939.0995;;;;
2020/10/22 05:49:13;;;;;;;6.2;2.5;;;;;;;8.06;80.2373;939.1113;;;;
2020/10/22 05:51:47;;;;;;;3;1.8;;;;;;;8.29;78.91797;938.959;;;;
2020/10/22 05:54:15;;;;;;;3.1;1.8;;;;;;;8.33;78.45898;939.043;;;;
2020/10/22 05:56:50;;;;;;;2.1;1.6;;;;;;;8.24;78.9082;939.0873;;;;
2020/10/22 05:59:13;;;;;;;3;1.7;;;;;;;8.41;78.29199;938.9913;;;;
2020/10/22 06:01:38;;;;;;;5.5;1.5;;;;;;;8.51;77.69629;938.9771;;;;
2020/10/22 06:04:10;;;;;;;3.7;2.1;;;;;;;8.69;76.18359;939.0139;;;;
2020/10/22 06:06:36;;;;;;;1.9;1.4;;;;;;;8.9;75.93555;938.9877;;;;
2020/10/22 06:09:01;;;;;;;2.1;1.5;;;;;;;9.04;75.41504;938.9942;;;;
2020/10/22 06:11:26;;;;;;;2.7;1.7;;;;;;;9.11;75.06152;938.9556;;;;
2020/10/22 06:13:52;;;;;;;5.6;1.8;;;;;;;9.11;75.25488;939.0287;;;;
2020/10/22 06:16:17;;;;;;;3.4;2.1;;;;;;;9.22;74.85449;939.1611;;;;
2020/10/22 06:18:45;;;;;;;3.7;1.6;;;;;;;9.3;75.32227;939.2703;;;;
2020/10/22 06:21:13;;;;;;;3.7;1.9;;;;;;;9.26;75.72559;939.3452;;;;
2020/10/22 06:23:38;;;;;;;16.4;2.3;;;;;;;9.07;75.96777;939.3562;;;;
2020/10/22 06:26:03;;;;;;;6.2;2.6;;;;;;;8.89;76.43262;939.3256;;;;
2020/10/22 06:28:28;;;;;;;6.1;2.3;;;;;;;8.97;76.6875;939.3334;;;;
2020/10/22 06:30:55;;;;;;;5.2;2.5;;;;;;;9.05;76.30371;939.4583;;;;
2020/10/22 06:33:21;;;;;;;3.7;1.9;;;;;;;9.26;75.71484;939.4023;;;;
2020/10/22 06:35:47;;;;;;;3.2;1.8;;;;;;;9.38;75.67969;939.4758;;;;
2020/10/22 06:38:13;;;;;;;3.3;1.9;;;;;;;9.46;75.74902;939.5877;;;;
2020/10/22 06:40:38;;;;;;;3;1.8;;;;;;;9.55;76.37109;939.7021;;;;
2020/10/22 06:43:04;;;;;;;9.7;1.9;;;;;;;9.77;75.4043;939.747;;;;
2020/10/22 06:45:43;;;;;;;6.8;2.4;;;;;;;10.05;74.76953;939.8264;;;;
2020/10/22 06:48:08;;;;;;;3.5;1.9;;;;;;;10.27;74.28516;939.8928;;;;
2020/10/22 06:50:40;;;;;;;5.5;2.7;;;;;;;10.25;74.04102;939.9291;;;;
2020/10/22 06:53:05;;;;;;;3;2;;;;;;;10.5;73.46582;939.8855;;;;
2020/10/22 06:55:30;;;;;;;4;2.1;;;;;;;10.63;73.13477;939.9749;;;;
2020/10/22 06:57:55;;;;;;;5.4;2.3;;;;;;;10.76;71.83105;940.1716;;;;
2020/10/22 07:00:29;;;;;;;2.9;1.5;;;;;;;10.9;71.05371;940.1487;;;;
2020/10/22 07:02:58;;;;;;;5.5;2.4;;;;;;;10.9;70.99609;940.0508;;;;
2020/10/22 07:05:25;;;;;;;2.5;1.5;;;;;;;11.01;70.94727;940.0137;;;;
2020/10/22 07:07:50;;;;;;;4.2;2.1;;;;;;;10.99;71.12695;940.1194;;;;
2020/10/22 07:10:19;;;;;;;4.5;2.4;;;;;;;11.03;71.12012;940.1544;;;;
2020/10/22 07:12:44;;;;;;;4.6;2;;;;;;;11.18;70.08301;940.2667;;;;
2020/10/22 07:15:09;;;;;;;3.1;1.8;;;;;;;11.14;69.67578;940.307;;;;
2020/10/22 07:17:34;;;;;;;2;1.2;;;;;;;11.4;66.34277;940.2756;;;;
2020/10/22 07:20:02;;;;;;;1.7;1;;;;;;;11.51;64.79199;940.3375;;;;
2020/10/22 07:22:33;;;;;;;1.2;1.1;;;;;;;11.75;62.72168;940.2832;;;;
2020/10/22 07:24:57;;;;;;;2;1.4;;;;;;;11.99;63.79785;940.2225;;;;
2020/10/22 07:27:22;;;;;;;4.5;1.3;;;;;;;12.08;63.66211;940.1652;;;;
2020/10/22 07:29:47;;;;;;;2;1.3;;;;;;;12.23;63.06543;940.1744;;;;
2020/10/22 07:32:15;;;;;;;2.8;1.2;;;;;;;12.33;62.72656;940.2302;;;;
2020/10/22 07:34:41;;;;;;;1.7;1.2;;;;;;;12.39;62.15918;940.3806;;;;
2020/10/22 07:37:07;;;;;;;1.4;1;;;;;;;12.38;62.53613;940.5034;;;;
2020/10/22 07:39:32;;;;;;;2.4;1;;;;;;;12.42;61.28125;940.5887;;;;
2020/10/22 07:41:58;;;;;;;2.5;1.3;;;;;;;12.56;61.72559;940.4568;;;;
2020/10/22 07:44:23;;;;;;;2.1;1.2;;;;;;;12.71;61.70117;940.3117;;;;
2020/10/22 07:46:51;;;;;;;1.9;1;;;;;;;12.84;61.55859;940.3429;;;;
2020/10/22 07:49:14;;;;;;;3.1;1.4;;;;;;;12.99;61.68164;940.3506;;;;
2020/10/22 07:51:39;;;;;;;3.1;1.6;;;;;;;12.93;61.41211;940.3361;;;;
2020/10/22 07:54:04;;;;;;;6.6;2.4;;;;;;;12.64;64.43457;940.3154;;;;
2020/10/22 07:56:29;;;;;;;4.6;2.2;;;;;;;12.42;65.54785;940.2461;;;;
2020/10/22 07:58:55;;;;;;;5.7;2.9;;;;;;;12.41;66.33594;940.272;;;;
2020/10/22 08:01:21;;;;;;;3.7;2.1;;;;;;;12.46;66.42578;940.1785;;;;
2020/10/22 08:03:47;;;;;;;4.5;2.6;;;;;;;12.52;67.06543;940.2211;;;;
2020/10/22 08:06:12;;;;;;;4.6;2.4;;;;;;;12.71;66.66992;940.235;;;;
2020/10/22 08:08:39;;;;;;;6.1;3;;;;;;;12.78;64.53418;940.2329;;;;
2020/10/22 08:11:03;;;;;;;5;2.9;;;;;;;12.89;64.91797;940.2392;;;;
2020/10/22 08:13:30;;;;;;;4.5;2.7;;;;;;;12.73;66.27246;940.2239;;;;
2020/10/22 08:15:55;;;;;;;7.5;3.6;;;;;;;12.65;66.83203;940.2683;;;;
2020/10/22 08:18:23;;;;;;;9.2;3.7;;;;;;;12.48;68.16016;940.2137;;;;
2020/10/22 08:20:48;;;;;;;14;5.8;;;;;;;12.34;68.58496;940.1965;;;;
2020/10/22 08:23:13;;;;;;;14.4;5.1;;;;;;;12.12;69.26172;940.1886;;;;
2020/10/22 08:25:38;;;;;;;8.8;4;;;;;;;12.08;69.41602;940.241;;;;
2020/10/22 08:28:05;;;;;;;11.4;4.8;;;;;;;12.3;68.52051;940.0926;;;;
2020/10/22 08:30:33;;;;;;;14;5.1;;;;;;;12.29;68.6123;940.0239;;;;
2020/10/22 08:33:00;;;;;;;15.1;6.3;;;;;;;12.43;68.07324;940.0337;;;;
2020/10/22 08:35:25;;;;;;;17;6.8;;;;;;;12.59;68.17773;940.1008;;;;
2020/10/22 08:37:51;;;;;;;19.3;8.1;;;;;;;12.67;67.85645;940.1333;;;;
2020/10/22 08:40:18;;;;;;;20.3;7.3;;;;;;;12.81;67.4082;940.1227;;;;
2020/10/22 08:42:43;;;;;;;19.8;8;;;;;;;12.87;68.24414;940.0761;;;;
2020/10/22 08:45:16;;;;;;;11.4;5.2;;;;;;;12.99;66.82715;940.0629;;;;
2020/10/22 08:47:41;;;;;;;10.1;4.2;;;;;;;12.95;65.16895;940.0595;;;;
2020/10/22 08:50:06;;;;;;;9;3.4;;;;;;;12.9;66.19336;940.0842;;;;
2020/10/22 08:52:32;;;;;;;9.9;3.6;;;;;;;13.18;66.74219;940.0112;;;;
2020/10/22 08:54:57;;;;;;;7.9;4;;;;;;;13.38;66.43945;940.031;;;;
2020/10/22 08:57:22;;;;;;;18.4;3.3;;;;;;;13.59;66.19434;940.0347;;;;
2020/10/22 08:59:47;;;;;;;10.3;3.9;;;;;;;13.74;65.78125;940.1552;;;;
2020/10/22 09:02:17;;;;;;;5.1;2.6;;;;;;;13.83;63.46094;940.1683;;;;
2020/10/22 09:04:42;;;;;;;5.2;2.4;;;;;;;13.89;62.78906;940.1258;;;;
2020/10/22 09:07:07;;;;;;;6.4;2.9;;;;;;;13.83;62.56152;940.1442;;;;
2020/10/22 09:09:33;;;;;;;5.1;3;;;;;;;13.92;62.35645;940.0089;;;;
2020/10/22 09:11:58;;;;;;;7.3;2.6;;;;;;;14.11;61.38281;939.9601;;;;
2020/10/22 09:14:26;;;;;;;2.2;1.4;;;;;;;14.17;57.40723;939.9849;;;;
2020/10/22 09:16:56;;;;;;;10.2;2.1;;;;;;;14.27;58.22461;939.9553;;;;
2020/10/22 09:19:22;;;;;;;3.3;1.9;;;;;;;14.47;57.34277;939.8922;;;;
2020/10/22 09:21:47;;;;;;;5.4;2.1;;;;;;;14.66;57.27539;939.8502;;;;
2020/10/22 09:24:14;;;;;;;2.3;1.3;;;;;;;14.82;57.50293;939.7784;;;;
2020/10/22 09:26:39;;;;;;;7.2;1.9;;;;;;;14.92;56.9043;939.7876;;;;
2020/10/22 09:29:07;;;;;;;6.9;2;;;;;;;14.86;56.87402;939.8496;;;;
2020/10/22 09:31:32;;;;;;;10.9;3.3;;;;;;;14.8;57.66309;939.9537;;;;
2020/10/22 09:33:57;;;;;;;9.3;2.9;;;;;;;14.85;58.29297;939.9363;;;;
2020/10/22 09:36:26;;;;;;;7.1;2.9;;;;;;;14.98;57.5127;939.8619;;;;
2020/10/22 09:38:52;;;;;;;4.5;2.2;;;;;;;15;56.92676;939.8376;;;;
2020/10/22 09:41:19;;;;;;;8;2.3;;;;;;;15.07;57.61719;939.8537;;;;
2020/10/22 09:43:44;;;;;;;6.2;2.1;;;;;;;15.23;56.87695;939.87;;;;
2020/10/22 09:46:09;;;;;;;8.5;1.8;;;;;;;15.4;56.37891;939.8978;;;;
2020/10/22 09:48:37;;;;;;;3.6;1.6;;;;;;;15.46;55.39355;939.8471;;;;
2020/10/22 09:51:02;;;;;;;2.7;1.6;;;;;;;15.61;54.81152;939.774;;;;
2020/10/22 09:53:28;;;;;;;3.3;1.4;;;;;;;15.63;52.49219;939.7983;;;;
2020/10/22 09:55:53;;;;;;;2.7;1.6;;;;;;;15.58;52.63574;939.7788;;;;
2020/10/22 09:58:21;;;;;;;3.2;1.3;;;;;;;15.57;51.33008;939.8303;;;;
2020/10/22 10:01:31;;;;;;;4.2;2;;;;;;;15.7;51.82031;939.8137;;;;
2020/10/22 10:04:12;;;;;;;1.8;1.1;;;;;;;15.95;51.24805;939.8425;;;;
2020/10/22 10:07:16;;;;;;;2.2;1.1;;;;;;;16.14;51.86035;939.8147;;;;
2020/10/22 10:09:39;;;;;;;2.3;1.3;;;;;;;16.28;53.2998;939.8279;;;;
2020/10/22 10:12:56;;;;;;;3.5;1.5;;;;;;;16.29;51.37988;939.8014;;;;
2020/10/22 10:16:35;;;;;;;3.5;1.8;;;;;;;16.21;51.76465;939.793;;;;
2020/10/22 10:19:10;;;;;;;2.6;1.7;;;;;;;15.88;52.37207;939.8391;;;;
2020/10/22 10:22:05;;;;;;;2;1.5;;;;;;;16.03;53.99805;939.7233;;;;
2020/10/22 10:25:20;;;;;;;4.6;2.1;;;;;;;16.13;55.35156;939.6749;;;;
2020/10/22 10:28:18;;;;;;;4.3;2.6;;;;;;;16.09;57.63672;939.6793;;;;
2020/10/22 10:31:12;;;;;;;37;16.1;;;;;;;16.02;58.41211;939.65;;;;
2020/10/22 10:33:41;;;;;;;57.8;28.7;;;;;;;16.11;58.73828;939.6703;;;;
2020/10/22 10:36:06;;;;;;;30.1;12.1;;;;;;;16.21;57.97656;939.6443;;;;
2020/10/22 10:38:33;;;;;;;5.9;3.3;;;;;;;16.4;57.13184;939.5761;;;;
2020/10/22 10:40:58;;;;;;;8.5;4.1;;;;;;;16.51;58.70996;939.6025;;;;
2020/10/22 10:43:24;;;;;;;9.9;3.3;;;;;;;16.4;57.6543;939.5302;;;;
2020/10/22 10:45:52;;;;;;;12.9;4.3;;;;;;;16.27;58.35449;939.4938;;;;
2020/10/22 10:48:19;;;;;;;3.3;2.2;;;;;;;16.33;55.83984;939.4932;;;;
2020/10/22 10:50:44;;;;;;;5;2.3;;;;;;;16.48;53.30078;939.5722;;;;
2020/10/22 10:53:12;;;;;;;4.2;2.3;;;;;;;16.79;53.53418;939.4888;;;;
2020/10/22 10:55:37;;;;;;;4.2;2.8;;;;;;;17.1;53.15625;939.4297;;;;
2020/10/22 10:58:06;;;;;;;4.9;2.3;;;;;;;17.28;51.79785;939.4662;;;;
2020/10/22 11:00:31;;;;;;;8.4;2.2;;;;;;;17.54;51.57324;939.3731;;;;
2020/10/22 11:02:57;;;;;;;4.5;2.4;;;;;;;17.73;52.2793;939.3539;;;;
2020/10/22 11:05:23;;;;;;;2.8;1.5;;;;;;;17.93;51.60742;939.3516;;;;
2020/10/22 11:07:50;;;;;;;3.7;1.5;;;;;;;18.11;50.72266;939.4366;;;;
2020/10/22 11:10:20;;;;;;;2.5;1.3;;;;;;;18.28;50.05664;939.5176;;;;
2020/10/22 11:12:45;;;;;;;3.3;1.8;;;;;;;18.42;51.03711;939.5466;;;;
2020/10/22 11:15:21;;;;;;;2.2;1.2;;;;;;;18.54;51.34082;939.522;;;;
2020/10/22 11:17:48;;;;;;;3.7;1.8;;;;;;;18.68;51.97461;939.5844;;;;
2020/10/22 11:20:18;;;;;;;2.5;1;;;;;;;18.83;50.1543;939.6641;;;;
2020/10/22 11:22:45;;;;;;;2.1;1;;;;;;;19.02;49.06836;939.678;;;;
2020/10/22 11:25:10;;;;;;;1;0.7;;;;;;;19.26;48.3623;939.7258;;;;
2020/10/22 11:27:37;;;;;;;1.1;0.6;;;;;;;19.57;47.51074;939.7509;;;;
2020/10/22 11:30:02;;;;;;;4.2;0.9;;;;;;;19.83;47.08398;939.7576;;;;
2020/10/22 11:32:28;;;;;;;4.7;1.5;;;;;;;19.99;48.59473;939.7148;;;;
2020/10/22 11:34:53;;;;;;;11;1.5;;;;;;;20.17;48.82227;939.6414;;;;
2020/10/22 11:37:18;;;;;;;1.6;1.1;;;;;;;20.27;47.00195;939.631;;;;
2020/10/22 11:39:44;;;;;;;1.9;1.2;;;;;;;20.48;47.19922;939.5728;;;;
2020/10/22 11:42:09;;;;;;;8.5;1.2;;;;;;;20.86;44.62207;939.5627;;;;
2020/10/22 11:44:34;;;;;;;2.1;0.9;;;;;;;21.24;44.60156;939.5033;;;;
2020/10/22 11:47:02;;;;;;;2.3;0.6;;;;;;;21.51;44.05469;939.4355;;;;
2020/10/22 11:49:27;;;;;;;1.1;0.5;;;;;;;21.68;43.60352;939.4118;;;;
2020/10/22 11:51:55;;;;;;;1.7;1.2;;;;;;;21.79;42.81738;939.4464;;;;
2020/10/22 11:54:20;;;;;;;1.5;0.7;;;;;;;21.81;42.93652;939.4425;;;;
2020/10/22 11:56:48;;;;;;;2;0.9;;;;;;;21.68;43.29883;939.4231;;;;
2020/10/22 11:59:13;;;;;;;0.6;0.5;;;;;;;21.58;43.47656;939.3499;;;;
2020/10/22 12:01:40;;;;;;;1.9;1;;;;;;;21.67;43.88281;939.3765;;;;
2020/10/22 12:04:08;;;;;;;2.1;0.8;;;;;;;22.26;42.63965;939.3591;;;;
2020/10/22 12:06:33;;;;;;;1.8;0.9;;;;;;;23.01;39.72852;939.3679;;;;
2020/10/22 12:08:58;;;;;;;1.2;0.8;;;;;;;23.72;38.52148;939.3041;;;;
2020/10/22 12:11:27;;;;;;;0.9;0.7;;;;;;;23.86;37.40332;939.2458;;;;
2020/10/22 12:13:52;;;;;;;0.8;0.5;;;;;;;23.6;37.18066;939.2475;;;;
2020/10/22 12:16:17;;;;;;;1.7;1;;;;;;;23.34;38.44043;939.2806;;;;
2020/10/22 12:18:43;;;;;;;2.1;1;;;;;;;23.53;38.62207;939.3035;;;;
2020/10/22 12:21:09;;;;;;;0.8;0.4;;;;;;;23.84;38.22461;939.3786;;;;
2020/10/22 12:23:34;;;;;;;2.6;0.8;;;;;;;23.89;36.33398;939.4082;;;;
2020/10/22 12:26:04;;;;;;;1.5;0.9;;;;;;;24.71;36.08398;939.5078;;;;
2020/10/22 12:28:31;;;;;;;4.4;0.9;;;;;;;26.32;32.63867;939.5562;;;;
2020/10/22 12:30:58;;;;;;;1.4;1;;;;;;;26.81;31.33594;939.55;;;;
2020/10/22 12:33:22;;;;;;;1.4;0.6;;;;;;;26.73;30.63184;939.4187;;;;
2020/10/22 12:35:50;;;;;;;1.7;0.6;;;;;;;25.98;32.0459;939.2875;;;;
2020/10/22 12:38:15;;;;;;;1.6;0.9;;;;;;;24.98;33.875;939.2267;;;;
2020/10/22 12:40:41;;;;;;;1.1;0.7;;;;;;;24.31;35.54395;939.1671;;;;
2020/10/22 12:43:06;;;;;;;0.9;0.7;;;;;;;23.76;38.09961;939.1927;;;;
2020/10/22 12:45:31;;;;;;;0.9;0.5;;;;;;;23.41;37.62402;939.1764;;;;
2020/10/22 12:48:02;;;;;;;1.4;0.6;;;;;;;23.12;38.39746;939.2147;;;;
2020/10/22 12:50:28;;;;;;;1;0.7;;;;;;;22.87;39.05664;939.2375;;;;
2020/10/22 12:52:54;;;;;;;13.8;1;;;;;;;22.62;39.8457;939.2034;;;;
2020/10/22 12:55:19;;;;;;;2.3;0.9;;;;;;;22.36;39.85742;939.183;;;;
2020/10/22 12:57:44;;;;;;;1.4;0.8;;;;;;;22.2;41.19141;939.1038;;;;
2020/10/22 13:00:10;;;;;;;1.3;0.9;;;;;;;22.06;41.41406;939.1077;;;;
2020/10/22 13:02:35;;;;;;;1.6;0.8;;;;;;;21.84;42.44727;939.1064;;;;
2020/10/22 13:05:01;;;;;;;3;0.8;;;;;;;21.66;43.98828;939.0769;;;;
2020/10/22 13:07:26;;;;;;;2.5;1;;;;;;;21.55;44.03516;939.0665;;;;
2020/10/22 13:09:51;;;;;;;1.5;0.8;;;;;;;21.22;41.55664;939.0571;;;;
2020/10/22 13:12:17;;;;;;;1.8;1.1;;;;;;;20.86;41.30176;939.0682;;;;
2020/10/22 13:14:42;;;;;;;1.6;0.8;;;;;;;20.81;42.88672;939.0012;;;;
2020/10/22 13:17:07;;;;;;;5.4;0.9;;;;;;;20.72;42.64355;938.9927;;;;
2020/10/22 13:19:35;;;;;;;1.3;0.8;;;;;;;20.63;42.59961;938.9483;;;;
2020/10/22 13:22:03;;;;;;;4;0.5;;;;;;;20.51;44.06055;938.9278;;;;
2020/10/22 13:24:27;;;;;;;2.2;1.3;;;;;;;20.42;45.53418;938.9083;;;;
2020/10/22 13:26:55;;;;;;;6.9;3.5;;;;;;;20.32;45.9209;938.8978;;;;
2020/10/22 13:29:21;;;;;;;1.2;1;;;;;;;20.25;44.58301;938.8656;;;;
2020/10/22 13:31:46;;;;;;;4.4;2.2;;;;;;;20.18;44.13184;938.809;;;;
2020/10/22 13:34:14;;;;;;;1.5;1;;;;;;;20.14;43.97656;938.7551;;;;
2020/10/22 13:36:37;;;;;;;1.4;1.1;;;;;;;20.18;45.67383;938.7968;;;;
2020/10/22 13:39:04;;;;;;;1.9;1;;;;;;;20.28;45.8584;938.7922;;;;
2020/10/22 13:41:29;;;;;;;0.8;0.6;;;;;;;20.45;45.43262;938.7589;;;;
2020/10/22 13:43:55;;;;;;;2.8;1.1;;;;;;;20.75;43.03223;938.7491;;;;
2020/10/22 13:46:20;;;;;;;6.3;0.8;;;;;;;21.11;43.65332;938.6983;;;;
2020/10/22 13:48:46;;;;;;;10.4;1.7;;;;;;;21.49;44.71973;938.7603;;;;
2020/10/22 13:51:11;;;;;;;1.8;1.3;;;;;;;22.15;44.28223;938.7664;;;;
2020/10/22 13:53:36;;;;;;;0.6;0.5;;;;;;;23.25;40.70117;938.8234;;;;
2020/10/22 13:56:01;;;;;;;2.7;1.2;;;;;;;23.74;38.89941;938.8111;;;;
2020/10/22 13:58:27;;;;;;;2.2;0.9;;;;;;;23.69;34.02344;938.8183;;;;
2020/10/22 14:00:57;;;;;;;2.1;0.9;;;;;;;24.04;33.95703;938.7994;;;;
2020/10/22 14:03:25;;;;;;;2.4;1.2;;;;;;;24.33;35.18066;938.7863;;;;
2020/10/22 14:05:50;;;;;;;1.5;0.7;;;;;;;25.07;33.81055;938.7557;;;;
2020/10/22 14:08:17;;;;;;;15.6;0.9;;;;;;;26.36;29.45801;938.782;;;;
2020/10/22 14:10:44;;;;;;;1.5;0.9;;;;;;;25.61;29.40918;938.7114;;;;
2020/10/22 14:13:09;;;;;;;0.7;0.5;;;;;;;25.22;31.48438;938.6892;;;;
2020/10/22 14:15:34;;;;;;;1.3;0.9;;;;;;;25.29;31.12305;938.7019;;;;
2020/10/22 14:18:00;;;;;;;0.8;0.5;;;;;;;24.69;31.8125;938.6878;;;;
2020/10/22 14:20:26;;;;;;;0.9;0.7;;;;;;;24.62;33.87109;938.6371;;;;
2020/10/22 14:22:51;;;;;;;5;1.1;;;;;;;24.48;34.2373;938.5912;;;;
2020/10/22 14:25:22;;;;;;;3.1;0.9;;;;;;;23.57;33.28613;938.621;;;;
2020/10/22 14:27:49;;;;;;;4.8;1.1;;;;;;;23.13;35.62598;938.6756;;;;
2020/10/22 14:30:26;;;;;;;2.4;0.8;;;;;;;22.68;36.25879;938.6456;;;;
2020/10/22 14:32:58;;;;;;;4.7;1.2;;;;;;;22.15;37.55176;938.587;;;;
2020/10/22 14:35:28;;;;;;;3.6;1.2;;;;;;;22.04;38.50391;938.572;;;;